sensor_id;sensor_type;location;lat;lon;timestamp;temperature;humidity
36856;DHT22;22788;51.434;6.786;2023-06-19T00:00:32;24.10;71.80
36856;DHT22;22788;51.434;6.786;2023-06-19T00:02:57;24.10;70.00
36856;DHT22;22788;51.434;6.786;2023-06-19T00:05:23;24.10;70.20
36856;DHT22;22788;51.434;6.786;2023-06-19T00:07:48;24.10;70.00
36856;DHT22;22788;51.434;6.786;2023-06-19T00:10:14;24.10;70.20
36856;DHT22;22788;51.434;6.786;2023-06-19T00:12:41;24.10;73.30
36856;DHT22;22788;51.434;6.786;2023-06-19T00:15:08;24.10;69.50
36856;DHT22;22788;51.434;6.786;2023-06-19T00:17:33;24.10;72.40
36856;DHT22;22788;51.434;6.786;2023-06-19T00:19:59;24.10;71.90
36856;DHT22;22788;51.434;6.786;2023-06-19T00:22:25;24.00;71.40
36856;DHT22;22788;51.434;6.786;2023-06-19T00:24:50;24.00;69.80
36856;DHT22;22788;51.434;6.786;2023-06-19T00:27:16;24.10;70.30
36856;DHT22;22788;51.434;6.786;2023-06-19T00:29:43;24.00;70.00
36856;DHT22;22788;51.434;6.786;2023-06-19T00:32:09;24.00;69.70
36856;DHT22;22788;51.434;6.786;2023-06-19T00:34:34;24.00;71.60
36856;DHT22;22788;51.434;6.786;2023-06-19T00:37:00;24.00;69.90
36856;DHT22;22788;51.434;6.786;2023-06-19T00:39:26;24.00;71.60
36856;DHT22;22788;51.434;6.786;2023-06-19T00:41:52;23.90;70.10
36856;DHT22;22788;51.434;6.786;2023-06-19T00:44:18;24.00;73.20
36856;DHT22;22788;51.434;6.786;2023-06-19T00:46:45;23.90;70.20
36856;DHT22;22788;51.434;6.786;2023-06-19T00:49:11;23.90;70.60
36856;DHT22;22788;51.434;6.786;2023-06-19T00:51:37;23.90;71.50
36856;DHT22;22788;51.434;6.786;2023-06-19T00:54:03;23.90;70.40
36856;DHT22;22788;51.434;6.786;2023-06-19T00:56:29;23.90;70.40
36856;DHT22;22788;51.434;6.786;2023-06-19T00:58:55;23.90;74.50
36856;DHT22;22788;51.434;6.786;2023-06-19T01:01:21;23.90;72.70
36856;DHT22;22788;51.434;6.786;2023-06-19T01:03:49;23.90;73.60
36856;DHT22;22788;51.434;6.786;2023-06-19T01:06:24;23.90;71.20
36856;DHT22;22788;51.434;6.786;2023-06-19T01:08:56;23.90;75.10
36856;DHT22;22788;51.434;6.786;2023-06-19T01:11:25;23.80;75.30
36856;DHT22;22788;51.434;6.786;2023-06-19T01:13:55;23.80;72.70
36856;DHT22;22788;51.434;6.786;2023-06-19T01:16:21;23.80;74.20
36856;DHT22;22788;51.434;6.786;2023-06-19T01:18:48;23.80;72.70
36856;DHT22;22788;51.434;6.786;2023-06-19T01:21:16;23.80;72.00
36856;DHT22;22788;51.434;6.786;2023-06-19T01:23:44;23.70;72.00
36856;DHT22;22788;51.434;6.786;2023-06-19T01:26:10;23.80;71.80
36856;DHT22;22788;51.434;6.786;2023-06-19T01:28:38;23.70;71.30
36856;DHT22;22788;51.434;6.786;2023-06-19T01:31:08;23.70;71.10
36856;DHT22;22788;51.434;6.786;2023-06-19T01:33:38;23.70;70.90
36856;DHT22;22788;51.434;6.786;2023-06-19T01:36:06;23.70;70.90
36856;DHT22;22788;51.434;6.786;2023-06-19T01:38:32;23.70;73.80
36856;DHT22;22788;51.434;6.786;2023-06-19T01:41:01;23.70;71.70
36856;DHT22;22788;51.434;6.786;2023-06-19T01:43:28;23.70;73.00
36856;DHT22;22788;51.434;6.786;2023-06-19T01:45:55;23.70;71.90
36856;DHT22;22788;51.434;6.786;2023-06-19T01:48:21;23.70;71.20
36856;DHT22;22788;51.434;6.786;2023-06-19T01:50:46;23.70;74.60
36856;DHT22;22788;51.434;6.786;2023-06-19T01:53:12;23.70;71.70
36856;DHT22;22788;51.434;6.786;2023-06-19T01:55:38;23.60;71.90
36856;DHT22;22788;51.434;6.786;2023-06-19T01:58:05;23.60;71.50
36856;DHT22;22788;51.434;6.786;2023-06-19T02:00:30;23.60;71.90
36856;DHT22;22788;51.434;6.786;2023-06-19T02:02:56;23.70;71.80
36856;DHT22;22788;51.434;6.786;2023-06-19T02:05:22;23.60;72.40
36856;DHT22;22788;51.434;6.786;2023-06-19T02:07:47;23.60;76.60
36856;DHT22;22788;51.434;6.786;2023-06-19T02:10:13;23.60;71.90
36856;DHT22;22788;51.434;6.786;2023-06-19T02:12:38;23.60;71.80
36856;DHT22;22788;51.434;6.786;2023-06-19T02:15:07;23.60;73.30
36856;DHT22;22788;51.434;6.786;2023-06-19T02:17:32;23.60;71.80
36856;DHT22;22788;51.434;6.786;2023-06-19T02:19:58;23.60;72.10
36856;DHT22;22788;51.434;6.786;2023-06-19T02:22:24;23.60;72.00
36856;DHT22;22788;51.434;6.786;2023-06-19T02:24:49;23.60;73.80
36856;DHT22;22788;51.434;6.786;2023-06-19T02:27:15;23.50;72.10
36856;DHT22;22788;51.434;6.786;2023-06-19T02:29:40;23.50;72.60
36856;DHT22;22788;51.434;6.786;2023-06-19T02:32:08;23.60;74.40
36856;DHT22;22788;51.434;6.786;2023-06-19T02:34:33;23.50;72.50
36856;DHT22;22788;51.434;6.786;2023-06-19T02:36:59;23.50;74.00
36856;DHT22;22788;51.434;6.786;2023-06-19T02:39:24;23.50;72.50
36856;DHT22;22788;51.434;6.786;2023-06-19T02:41:50;23.50;73.40
36856;DHT22;22788;51.434;6.786;2023-06-19T02:44:16;23.50;72.90
36856;DHT22;22788;51.434;6.786;2023-06-19T02:46:41;23.50;73.40
36856;DHT22;22788;51.434;6.786;2023-06-19T02:49:08;23.50;72.80
36856;DHT22;22788;51.434;6.786;2023-06-19T02:51:34;23.50;75.40
36856;DHT22;22788;51.434;6.786;2023-06-19T02:53:59;23.50;72.80
36856;DHT22;22788;51.434;6.786;2023-06-19T02:56:26;23.50;74.00
36856;DHT22;22788;51.434;6.786;2023-06-19T02:58:52;23.50;74.60
36856;DHT22;22788;51.434;6.786;2023-06-19T03:01:17;23.50;74.80
36856;DHT22;22788;51.434;6.786;2023-06-19T03:03:43;23.50;77.70
36856;DHT22;22788;51.434;6.786;2023-06-19T03:06:10;23.50;73.60
36856;DHT22;22788;51.434;6.786;2023-06-19T03:08:36;23.50;74.00
36856;DHT22;22788;51.434;6.786;2023-06-19T03:11:02;23.40;78.00
36856;DHT22;22788;51.434;6.786;2023-06-19T03:13:27;23.40;74.40
36856;DHT22;22788;51.434;6.786;2023-06-19T03:15:53;23.50;77.30
36856;DHT22;22788;51.434;6.786;2023-06-19T03:18:19;23.40;75.90
36856;DHT22;22788;51.434;6.786;2023-06-19T03:20:44;23.50;80.20
36856;DHT22;22788;51.434;6.786;2023-06-19T03:23:11;23.40;81.80
36856;DHT22;22788;51.434;6.786;2023-06-19T03:25:37;23.40;81.60
36856;DHT22;22788;51.434;6.786;2023-06-19T03:28:03;23.30;78.60
36856;DHT22;22788;51.434;6.786;2023-06-19T03:30:29;23.30;79.00
36856;DHT22;22788;51.434;6.786;2023-06-19T03:32:55;23.30;83.70
36856;DHT22;22788;51.434;6.786;2023-06-19T03:35:21;23.30;79.80
36856;DHT22;22788;51.434;6.786;2023-06-19T03:37:46;23.30;81.00
36856;DHT22;22788;51.434;6.786;2023-06-19T03:40:13;23.30;78.30
36856;DHT22;22788;51.434;6.786;2023-06-19T03:42:39;23.30;79.60
36856;DHT22;22788;51.434;6.786;2023-06-19T03:45:05;23.30;79.70
36856;DHT22;22788;51.434;6.786;2023-06-19T03:47:31;23.30;79.40
36856;DHT22;22788;51.434;6.786;2023-06-19T03:49:57;23.30;81.00
36856;DHT22;22788;51.434;6.786;2023-06-19T03:52:22;23.30;80.90
36856;DHT22;22788;51.434;6.786;2023-06-19T03:54:48;23.20;78.30
36856;DHT22;22788;51.434;6.786;2023-06-19T03:57:15;23.30;78.00
36856;DHT22;22788;51.434;6.786;2023-06-19T03:59:41;23.20;80.60
36856;DHT22;22788;51.434;6.786;2023-06-19T04:02:06;23.20;78.00
36856;DHT22;22788;51.434;6.786;2023-06-19T04:04:32;23.20;79.70
36856;DHT22;22788;51.434;6.786;2023-06-19T04:06:57;23.20;83.50
36856;DHT22;22788;51.434;6.786;2023-06-19T04:09:23;23.10;79.10
36856;DHT22;22788;51.434;6.786;2023-06-19T04:11:49;23.20;78.70
36856;DHT22;22788;51.434;6.786;2023-06-19T04:14:16;23.20;81.40
36856;DHT22;22788;51.434;6.786;2023-06-19T04:16:41;23.20;80.30
36856;DHT22;22788;51.434;6.786;2023-06-19T04:19:07;23.20;85.20
36856;DHT22;22788;51.434;6.786;2023-06-19T04:21:32;23.00;90.00
36856;DHT22;22788;51.434;6.786;2023-06-19T04:23:58;22.90;84.30
36856;DHT22;22788;51.434;6.786;2023-06-19T04:26:24;23.00;81.90
36856;DHT22;22788;51.434;6.786;2023-06-19T04:28:49;23.00;81.50
36856;DHT22;22788;51.434;6.786;2023-06-19T04:31:16;23.10;80.60
36856;DHT22;22788;51.434;6.786;2023-06-19T04:33:42;23.10;86.80
36856;DHT22;22788;51.434;6.786;2023-06-19T04:36:07;23.10;87.40
36856;DHT22;22788;51.434;6.786;2023-06-19T04:38:33;23.10;87.70
36856;DHT22;22788;51.434;6.786;2023-06-19T04:40:59;23.10;81.20
36856;DHT22;22788;51.434;6.786;2023-06-19T04:43:24;23.10;80.60
36856;DHT22;22788;51.434;6.786;2023-06-19T04:45:50;23.10;79.60
36856;DHT22;22788;51.434;6.786;2023-06-19T04:48:17;23.10;79.60
36856;DHT22;22788;51.434;6.786;2023-06-19T04:50:42;23.10;82.20
36856;DHT22;22788;51.434;6.786;2023-06-19T04:53:08;23.10;80.00
36856;DHT22;22788;51.434;6.786;2023-06-19T04:55:33;23.10;85.40
36856;DHT22;22788;51.434;6.786;2023-06-19T04:57:59;23.10;79.40
36856;DHT22;22788;51.434;6.786;2023-06-19T05:00:25;23.10;82.10
36856;DHT22;22788;51.434;6.786;2023-06-19T05:02:50;23.10;82.40
36856;DHT22;22788;51.434;6.786;2023-06-19T05:05:17;23.10;83.20
36856;DHT22;22788;51.434;6.786;2023-06-19T05:07:44;23.10;83.20
36856;DHT22;22788;51.434;6.786;2023-06-19T05:10:10;23.00;87.90
36856;DHT22;22788;51.434;6.786;2023-06-19T05:12:35;23.00;90.30
36856;DHT22;22788;51.434;6.786;2023-06-19T05:15:01;22.80;91.10
36856;DHT22;22788;51.434;6.786;2023-06-19T05:17:27;22.80;90.20
36856;DHT22;22788;51.434;6.786;2023-06-19T05:19:52;22.90;83.30
36856;DHT22;22788;51.434;6.786;2023-06-19T05:22:19;22.90;87.00
36856;DHT22;22788;51.434;6.786;2023-06-19T05:24:46;22.90;85.50
36856;DHT22;22788;51.434;6.786;2023-06-19T05:27:11;22.90;84.20
36856;DHT22;22788;51.434;6.786;2023-06-19T05:29:37;23.00;87.40
36856;DHT22;22788;51.434;6.786;2023-06-19T05:32:03;22.90;88.00
36856;DHT22;22788;51.434;6.786;2023-06-19T05:34:29;22.90;90.20
36856;DHT22;22788;51.434;6.786;2023-06-19T05:36:54;22.90;87.50
36856;DHT22;22788;51.434;6.786;2023-06-19T05:39:21;22.90;86.60
36856;DHT22;22788;51.434;6.786;2023-06-19T05:41:47;22.90;90.10
36856;DHT22;22788;51.434;6.786;2023-06-19T05:44:12;23.00;88.60
36856;DHT22;22788;51.434;6.786;2023-06-19T05:46:38;23.00;87.80
36856;DHT22;22788;51.434;6.786;2023-06-19T05:49:04;22.90;91.50
36856;DHT22;22788;51.434;6.786;2023-06-19T05:51:29;23.00;89.90
36856;DHT22;22788;51.434;6.786;2023-06-19T05:53:55;23.00;90.30
36856;DHT22;22788;51.434;6.786;2023-06-19T05:56:22;23.00;88.40
36856;DHT22;22788;51.434;6.786;2023-06-19T05:58:47;23.00;92.10
36856;DHT22;22788;51.434;6.786;2023-06-19T06:01:13;22.90;92.90
36856;DHT22;22788;51.434;6.786;2023-06-19T06:03:38;22.90;88.40
36856;DHT22;22788;51.434;6.786;2023-06-19T06:06:04;22.90;90.30
36856;DHT22;22788;51.434;6.786;2023-06-19T06:08:30;22.90;90.50
36856;DHT22;22788;51.434;6.786;2023-06-19T06:10:55;22.90;92.20
36856;DHT22;22788;51.434;6.786;2023-06-19T06:13:22;22.90;92.20
36856;DHT22;22788;51.434;6.786;2023-06-19T06:15:48;23.00;91.00
36856;DHT22;22788;51.434;6.786;2023-06-19T06:18:14;22.90;92.70
36856;DHT22;22788;51.434;6.786;2023-06-19T06:20:39;22.90;92.50
36856;DHT22;22788;51.434;6.786;2023-06-19T06:23:05;22.90;90.90
36856;DHT22;22788;51.434;6.786;2023-06-19T06:25:31;22.90;88.70
36856;DHT22;22788;51.434;6.786;2023-06-19T06:27:56;23.00;88.90
36856;DHT22;22788;51.434;6.786;2023-06-19T06:30:23;23.00;90.00
36856;DHT22;22788;51.434;6.786;2023-06-19T06:32:49;22.90;90.80
36856;DHT22;22788;51.434;6.786;2023-06-19T06:35:15;23.00;90.80
36856;DHT22;22788;51.434;6.786;2023-06-19T06:37:40;23.00;87.10
36856;DHT22;22788;51.434;6.786;2023-06-19T06:40:07;22.90;89.60
36856;DHT22;22788;51.434;6.786;2023-06-19T06:42:33;22.90;91.80
36856;DHT22;22788;51.434;6.786;2023-06-19T06:44:58;22.90;89.50
36856;DHT22;22788;51.434;6.786;2023-06-19T06:47:25;23.00;92.90
36856;DHT22;22788;51.434;6.786;2023-06-19T06:49:51;22.90;89.60
36856;DHT22;22788;51.434;6.786;2023-06-19T06:52:17;22.90;89.20
36856;DHT22;22788;51.434;6.786;2023-06-19T06:54:42;23.00;90.70
36856;DHT22;22788;51.434;6.786;2023-06-19T06:57:08;23.00;91.40
36856;DHT22;22788;51.434;6.786;2023-06-19T06:59:33;23.00;90.80
36856;DHT22;22788;51.434;6.786;2023-06-19T07:01:59;23.00;91.40
36856;DHT22;22788;51.434;6.786;2023-06-19T07:04:26;23.00;90.70
36856;DHT22;22788;51.434;6.786;2023-06-19T07:06:52;22.90;92.90
36856;DHT22;22788;51.434;6.786;2023-06-19T07:09:18;22.90;93.10
36856;DHT22;22788;51.434;6.786;2023-06-19T07:11:43;22.90;93.40
36856;DHT22;22788;51.434;6.786;2023-06-19T07:14:09;22.90;90.60
36856;DHT22;22788;51.434;6.786;2023-06-19T07:16:34;22.90;94.60
36856;DHT22;22788;51.434;6.786;2023-06-19T07:19:00;22.90;95.00
36856;DHT22;22788;51.434;6.786;2023-06-19T07:21:27;22.90;93.30
36856;DHT22;22788;51.434;6.786;2023-06-19T07:23:54;22.90;91.10
36856;DHT22;22788;51.434;6.786;2023-06-19T07:26:20;22.90;91.20
36856;DHT22;22788;51.434;6.786;2023-06-19T07:28:45;22.90;92.30
36856;DHT22;22788;51.434;6.786;2023-06-19T07:31:11;22.90;93.80
36856;DHT22;22788;51.434;6.786;2023-06-19T07:33:36;22.90;92.30
36856;DHT22;22788;51.434;6.786;2023-06-19T07:36:02;22.90;90.30
36856;DHT22;22788;51.434;6.786;2023-06-19T07:38:29;22.90;91.10
36856;DHT22;22788;51.434;6.786;2023-06-19T07:40:55;23.00;92.00
36856;DHT22;22788;51.434;6.786;2023-06-19T07:43:20;22.90;94.20
36856;DHT22;22788;51.434;6.786;2023-06-19T07:45:46;22.90;92.30
36856;DHT22;22788;51.434;6.786;2023-06-19T07:48:11;22.90;95.20
36856;DHT22;22788;51.434;6.786;2023-06-19T07:50:37;22.90;91.30
36856;DHT22;22788;51.434;6.786;2023-06-19T07:53:03;22.90;94.20
36856;DHT22;22788;51.434;6.786;2023-06-19T07:55:30;22.90;94.80
36856;DHT22;22788;51.434;6.786;2023-06-19T07:57:55;22.90;93.10
36856;DHT22;22788;51.434;6.786;2023-06-19T08:00:21;22.90;92.80
36856;DHT22;22788;51.434;6.786;2023-06-19T08:02:47;22.90;93.80
36856;DHT22;22788;51.434;6.786;2023-06-19T08:05:12;22.90;94.40
36856;DHT22;22788;51.434;6.786;2023-06-19T08:07:38;23.00;91.20
36856;DHT22;22788;51.434;6.786;2023-06-19T08:10:04;23.00;96.40
36856;DHT22;22788;51.434;6.786;2023-06-19T08:12:31;22.90;96.50
36856;DHT22;22788;51.434;6.786;2023-06-19T08:14:57;22.90;91.90
36856;DHT22;22788;51.434;6.786;2023-06-19T08:17:22;23.00;94.60
36856;DHT22;22788;51.434;6.786;2023-06-19T08:19:48;23.00;96.90
36856;DHT22;22788;51.434;6.786;2023-06-19T08:22:15;22.90;93.40
36856;DHT22;22788;51.434;6.786;2023-06-19T08:24:40;23.00;92.30
36856;DHT22;22788;51.434;6.786;2023-06-19T08:27:06;23.00;97.00
36856;DHT22;22788;51.434;6.786;2023-06-19T08:29:33;23.10;93.10
36856;DHT22;22788;51.434;6.786;2023-06-19T08:31:59;23.10;95.50
36856;DHT22;22788;51.434;6.786;2023-06-19T08:34:24;23.10;96.60
36856;DHT22;22788;51.434;6.786;2023-06-19T08:36:50;23.10;96.10
36856;DHT22;22788;51.434;6.786;2023-06-19T08:39:16;23.10;95.30
36856;DHT22;22788;51.434;6.786;2023-06-19T08:41:42;23.10;96.50
36856;DHT22;22788;51.434;6.786;2023-06-19T08:44:08;23.10;96.30
36856;DHT22;22788;51.434;6.786;2023-06-19T08:46:35;23.10;97.30
36856;DHT22;22788;51.434;6.786;2023-06-19T08:49:01;23.00;96.70
36856;DHT22;22788;51.434;6.786;2023-06-19T08:51:27;23.10;96.60
36856;DHT22;22788;51.434;6.786;2023-06-19T08:53:56;23.00;96.20
36856;DHT22;22788;51.434;6.786;2023-06-19T08:56:22;23.10;96.50
36856;DHT22;22788;51.434;6.786;2023-06-19T08:58:48;23.10;95.50
36856;DHT22;22788;51.434;6.786;2023-06-19T09:01:17;23.10;95.50
36856;DHT22;22788;51.434;6.786;2023-06-19T09:03:44;23.10;95.60
36856;DHT22;22788;51.434;6.786;2023-06-19T09:06:09;23.10;95.20
36856;DHT22;22788;51.434;6.786;2023-06-19T09:08:35;23.20;95.80
36856;DHT22;22788;51.434;6.786;2023-06-19T09:11:01;23.20;94.50
36856;DHT22;22788;51.434;6.786;2023-06-19T09:13:28;23.20;94.60
36856;DHT22;22788;51.434;6.786;2023-06-19T09:15:58;23.30;93.90
36856;DHT22;22788;51.434;6.786;2023-06-19T09:18:24;23.30;95.30
36856;DHT22;22788;51.434;6.786;2023-06-19T09:20:53;23.30;95.00
36856;DHT22;22788;51.434;6.786;2023-06-19T09:23:19;23.30;94.40
36856;DHT22;22788;51.434;6.786;2023-06-19T09:25:45;23.40;94.60
36856;DHT22;22788;51.434;6.786;2023-06-19T09:28:17;23.40;94.20
36856;DHT22;22788;51.434;6.786;2023-06-19T09:30:54;23.40;94.20
36856;DHT22;22788;51.434;6.786;2023-06-19T09:33:20;23.40;93.90
36856;DHT22;22788;51.434;6.786;2023-06-19T09:35:46;23.50;94.40
36856;DHT22;22788;51.434;6.786;2023-06-19T09:38:14;23.60;93.50
36856;DHT22;22788;51.434;6.786;2023-06-19T09:40:40;23.60;93.40
36856;DHT22;22788;51.434;6.786;2023-06-19T09:43:07;23.50;94.00
36856;DHT22;22788;51.434;6.786;2023-06-19T09:45:33;23.60;93.70
36856;DHT22;22788;51.434;6.786;2023-06-19T09:47:59;23.60;93.30
36856;DHT22;22788;51.434;6.786;2023-06-19T09:50:26;23.70;93.20
36856;DHT22;22788;51.434;6.786;2023-06-19T09:52:52;23.70;93.60
36856;DHT22;22788;51.434;6.786;2023-06-19T09:55:19;23.80;93.50
36856;DHT22;22788;51.434;6.786;2023-06-19T09:57:47;23.70;92.70
36856;DHT22;22788;51.434;6.786;2023-06-19T10:00:13;23.80;92.50
36856;DHT22;22788;51.434;6.786;2023-06-19T10:02:41;23.70;92.70
36856;DHT22;22788;51.434;6.786;2023-06-19T10:05:07;23.80;92.60
36856;DHT22;22788;51.434;6.786;2023-06-19T10:07:34;23.80;92.90
36856;DHT22;22788;51.434;6.786;2023-06-19T10:10:01;23.80;92.40
36856;DHT22;22788;51.434;6.786;2023-06-19T10:12:40;23.80;92.30
36856;DHT22;22788;51.434;6.786;2023-06-19T10:15:16;23.90;92.20
36856;DHT22;22788;51.434;6.786;2023-06-19T10:17:47;24.00;92.50
36856;DHT22;22788;51.434;6.786;2023-06-19T10:20:21;24.00;92.20
36856;DHT22;22788;51.434;6.786;2023-06-19T10:22:51;24.10;92.00
36856;DHT22;22788;51.434;6.786;2023-06-19T10:25:20;24.00;91.70
36856;DHT22;22788;51.434;6.786;2023-06-19T10:27:47;24.10;91.20
36856;DHT22;22788;51.434;6.786;2023-06-19T10:30:16;24.10;91.70
36856;DHT22;22788;51.434;6.786;2023-06-19T10:32:42;24.20;90.90
36856;DHT22;22788;51.434;6.786;2023-06-19T10:35:10;24.30;90.60
36856;DHT22;22788;51.434;6.786;2023-06-19T10:37:36;24.30;90.20
36856;DHT22;22788;51.434;6.786;2023-06-19T10:40:02;24.30;90.10
36856;DHT22;22788;51.434;6.786;2023-06-19T10:42:28;24.30;90.10
36856;DHT22;22788;51.434;6.786;2023-06-19T10:45:02;24.30;90.20
36856;DHT22;22788;51.434;6.786;2023-06-19T10:47:28;24.40;89.50
36856;DHT22;22788;51.434;6.786;2023-06-19T10:49:54;24.40;88.50
36856;DHT22;22788;51.434;6.786;2023-06-19T10:52:20;24.40;88.30
36856;DHT22;22788;51.434;6.786;2023-06-19T10:54:46;24.30;88.60
36856;DHT22;22788;51.434;6.786;2023-06-19T10:57:18;24.40;88.30
36856;DHT22;22788;51.434;6.786;2023-06-19T10:59:43;24.50;88.50
36856;DHT22;22788;51.434;6.786;2023-06-19T11:02:10;24.50;88.60
36856;DHT22;22788;51.434;6.786;2023-06-19T11:04:37;24.50;87.00
36856;DHT22;22788;51.434;6.786;2023-06-19T11:07:05;24.60;86.40
36856;DHT22;22788;51.434;6.786;2023-06-19T11:09:30;24.60;86.30
36856;DHT22;22788;51.434;6.786;2023-06-19T11:11:56;24.50;87.60
36856;DHT22;22788;51.434;6.786;2023-06-19T11:14:22;24.60;87.70
36856;DHT22;22788;51.434;6.786;2023-06-19T11:16:48;24.50;87.30
36856;DHT22;22788;51.434;6.786;2023-06-19T11:19:16;24.60;83.40
36856;DHT22;22788;51.434;6.786;2023-06-19T11:21:45;24.60;83.90
36856;DHT22;22788;51.434;6.786;2023-06-19T11:24:13;24.70;85.10
36856;DHT22;22788;51.434;6.786;2023-06-19T11:26:39;24.70;84.10
36856;DHT22;22788;51.434;6.786;2023-06-19T11:29:14;24.70;84.50
36856;DHT22;22788;51.434;6.786;2023-06-19T11:31:39;24.70;85.20
36856;DHT22;22788;51.434;6.786;2023-06-19T11:34:05;24.80;84.90
36856;DHT22;22788;51.434;6.786;2023-06-19T11:36:32;25.00;83.20
36856;DHT22;22788;51.434;6.786;2023-06-19T11:38:58;25.00;83.20
36856;DHT22;22788;51.434;6.786;2023-06-19T11:41:27;25.10;83.90
36856;DHT22;22788;51.434;6.786;2023-06-19T11:43:58;25.10;84.10
36856;DHT22;22788;51.434;6.786;2023-06-19T11:46:28;25.10;83.10
36856;DHT22;22788;51.434;6.786;2023-06-19T11:48:54;25.20;82.40
36856;DHT22;22788;51.434;6.786;2023-06-19T11:51:20;25.10;81.90
36856;DHT22;22788;51.434;6.786;2023-06-19T11:53:47;25.10;84.20
36856;DHT22;22788;51.434;6.786;2023-06-19T11:56:13;25.10;83.80
36856;DHT22;22788;51.434;6.786;2023-06-19T11:58:38;25.20;81.10
36856;DHT22;22788;51.434;6.786;2023-06-19T12:01:04;25.20;82.40
36856;DHT22;22788;51.434;6.786;2023-06-19T12:03:29;25.30;79.70
36856;DHT22;22788;51.434;6.786;2023-06-19T12:05:55;25.30;82.50
36856;DHT22;22788;51.434;6.786;2023-06-19T12:08:21;25.30;80.80
36856;DHT22;22788;51.434;6.786;2023-06-19T12:10:48;25.40;80.40
36856;DHT22;22788;51.434;6.786;2023-06-19T12:13:14;25.40;79.50
36856;DHT22;22788;51.434;6.786;2023-06-19T12:15:39;25.60;77.80
36856;DHT22;22788;51.434;6.786;2023-06-19T12:18:05;25.60;78.90
36856;DHT22;22788;51.434;6.786;2023-06-19T12:20:30;25.60;77.40
36856;DHT22;22788;51.434;6.786;2023-06-19T12:22:56;25.70;77.90
36856;DHT22;22788;51.434;6.786;2023-06-19T12:25:22;25.60;81.00
36856;DHT22;22788;51.434;6.786;2023-06-19T12:27:48;25.60;81.50
36856;DHT22;22788;51.434;6.786;2023-06-19T12:30:14;25.50;78.70
36856;DHT22;22788;51.434;6.786;2023-06-19T12:32:40;25.60;78.20
36856;DHT22;22788;51.434;6.786;2023-06-19T12:35:06;25.60;78.70
36856;DHT22;22788;51.434;6.786;2023-06-19T12:37:31;25.60;78.20
36856;DHT22;22788;51.434;6.786;2023-06-19T12:39:57;25.60;78.50
36856;DHT22;22788;51.434;6.786;2023-06-19T12:42:22;25.60;78.90
36856;DHT22;22788;51.434;6.786;2023-06-19T12:44:49;25.60;79.40
36856;DHT22;22788;51.434;6.786;2023-06-19T12:47:15;25.60;78.70
36856;DHT22;22788;51.434;6.786;2023-06-19T12:49:41;25.60;80.00
36856;DHT22;22788;51.434;6.786;2023-06-19T12:52:07;25.60;79.20
36856;DHT22;22788;51.434;6.786;2023-06-19T12:54:33;25.60;78.50
36856;DHT22;22788;51.434;6.786;2023-06-19T12:56:59;25.60;79.90
36856;DHT22;22788;51.434;6.786;2023-06-19T12:59:24;25.70;77.20
36856;DHT22;22788;51.434;6.786;2023-06-19T13:01:51;25.70;75.00
36856;DHT22;22788;51.434;6.786;2023-06-19T13:04:17;25.70;77.90
36856;DHT22;22788;51.434;6.786;2023-06-19T13:06:43;25.70;78.60
36856;DHT22;22788;51.434;6.786;2023-06-19T13:09:08;25.90;77.80
36856;DHT22;22788;51.434;6.786;2023-06-19T13:11:34;26.10;77.80
36856;DHT22;22788;51.434;6.786;2023-06-19T13:13:59;26.20;77.20
36856;DHT22;22788;51.434;6.786;2023-06-19T13:16:25;26.20;76.20
36856;DHT22;22788;51.434;6.786;2023-06-19T13:18:52;26.20;76.80
36856;DHT22;22788;51.434;6.786;2023-06-19T13:21:18;26.30;76.80
36856;DHT22;22788;51.434;6.786;2023-06-19T13:23:43;26.40;75.10
36856;DHT22;22788;51.434;6.786;2023-06-19T13:26:09;26.40;77.40
36856;DHT22;22788;51.434;6.786;2023-06-19T13:28:35;26.40;77.00
36856;DHT22;22788;51.434;6.786;2023-06-19T13:31:01;26.40;77.90
36856;DHT22;22788;51.434;6.786;2023-06-19T13:33:28;26.30;77.00
36856;DHT22;22788;51.434;6.786;2023-06-19T13:35:55;26.20;78.20
36856;DHT22;22788;51.434;6.786;2023-06-19T13:38:21;26.10;78.40
36856;DHT22;22788;51.434;6.786;2023-06-19T13:40:47;26.30;77.30
36856;DHT22;22788;51.434;6.786;2023-06-19T13:43:13;26.50;76.60
36856;DHT22;22788;51.434;6.786;2023-06-19T13:45:38;26.30;78.20
36856;DHT22;22788;51.434;6.786;2023-06-19T13:48:04;26.30;76.50
36856;DHT22;22788;51.434;6.786;2023-06-19T13:50:30;26.50;74.00
36856;DHT22;22788;51.434;6.786;2023-06-19T13:52:57;26.50;75.00
36856;DHT22;22788;51.434;6.786;2023-06-19T13:55:23;26.60;75.00
36856;DHT22;22788;51.434;6.786;2023-06-19T13:57:48;26.70;76.20
36856;DHT22;22788;51.434;6.786;2023-06-19T14:00:14;26.80;74.80
36856;DHT22;22788;51.434;6.786;2023-06-19T14:02:41;26.90;74.90
36856;DHT22;22788;51.434;6.786;2023-06-19T14:05:08;26.90;74.50
36856;DHT22;22788;51.434;6.786;2023-06-19T14:07:33;26.90;74.30
36856;DHT22;22788;51.434;6.786;2023-06-19T14:10:01;26.90;75.20
36856;DHT22;22788;51.434;6.786;2023-06-19T14:12:27;26.80;71.50
36856;DHT22;22788;51.434;6.786;2023-06-19T14:14:53;26.80;73.20
36856;DHT22;22788;51.434;6.786;2023-06-19T14:17:19;26.80;74.00
36856;DHT22;22788;51.434;6.786;2023-06-19T14:19:44;27.00;74.00
36856;DHT22;22788;51.434;6.786;2023-06-19T14:22:10;27.10;73.30
36856;DHT22;22788;51.434;6.786;2023-06-19T14:24:35;27.10;73.70
36856;DHT22;22788;51.434;6.786;2023-06-19T14:27:03;27.20;73.00
36856;DHT22;22788;51.434;6.786;2023-06-19T14:29:29;27.30;72.10
36856;DHT22;22788;51.434;6.786;2023-06-19T14:31:54;27.30;72.50
36856;DHT22;22788;51.434;6.786;2023-06-19T14:34:20;27.30;72.10
36856;DHT22;22788;51.434;6.786;2023-06-19T14:36:46;27.30;71.50
36856;DHT22;22788;51.434;6.786;2023-06-19T14:39:11;27.20;71.80
36856;DHT22;22788;51.434;6.786;2023-06-19T14:41:37;27.30;72.30
36856;DHT22;22788;51.434;6.786;2023-06-19T14:44:06;27.30;71.00
36856;DHT22;22788;51.434;6.786;2023-06-19T14:46:32;27.30;71.70
36856;DHT22;22788;51.434;6.786;2023-06-19T14:48:57;27.40;72.70
36856;DHT22;22788;51.434;6.786;2023-06-19T14:51:23;27.40;71.10
36856;DHT22;22788;51.434;6.786;2023-06-19T14:53:48;27.40;70.30
36856;DHT22;22788;51.434;6.786;2023-06-19T14:56:14;27.40;71.40
36856;DHT22;22788;51.434;6.786;2023-06-19T14:58:39;27.50;71.80
36856;DHT22;22788;51.434;6.786;2023-06-19T15:01:06;27.50;71.50
36856;DHT22;22788;51.434;6.786;2023-06-19T15:03:32;27.40;73.50
36856;DHT22;22788;51.434;6.786;2023-06-19T15:05:58;27.30;71.50
36856;DHT22;22788;51.434;6.786;2023-06-19T15:08:23;27.40;71.50
36856;DHT22;22788;51.434;6.786;2023-06-19T15:10:49;27.40;70.40
36856;DHT22;22788;51.434;6.786;2023-06-19T15:13:15;27.40;71.50
36856;DHT22;22788;51.434;6.786;2023-06-19T15:15:40;27.30;71.80
36856;DHT22;22788;51.434;6.786;2023-06-19T15:18:07;27.40;70.80
36856;DHT22;22788;51.434;6.786;2023-06-19T15:20:33;27.30;68.50
36856;DHT22;22788;51.434;6.786;2023-06-19T15:22:58;27.20;71.50